Sedgwick Reserve, California Weather observations

Data are for 10 minute period ending at time listed.
 Day   Time   Solar   Ave.   Ave.  Ave.  Vector  Max.   Baro.   Total    
  of    of     Rad.   Air    Rel.  Wind   Wind   Wind  Press.  Precip.   
Year   Day            Temp.  Hum.  Speed  Dir.   Gust                    
2014   (PST)  Kw/m2    F      %     mph   deg.    mph    mb.     in.     
-------------------------------------------------------------------------
 238    4:50   0.00   47.9    95    1.0   320     2.2   972.4    0.00 
 238    5:00   0.00   48.0    96    1.4   260     2.6   972.5    0.00 
 238    5:10   0.00   47.8    95    0.2   313     1.5   972.6    0.00 
 238    5:20   0.00   47.2    96    0.4   213     1.7   972.7    0.00 
 238    5:30   0.00   47.6    96    0.9   260     2.8   972.8    0.00 
 238    5:40   0.01   47.8    96    0.9   354     1.9   972.9    0.00 
 238    5:50   0.01   47.6    96    0.0   358     0.3   973.0    0.00 
 238    6:00   0.02   47.6    96    0.0     0     0.0   973.1    0.00 
 238    6:10   0.07   47.7    96    1.4     3     3.3   973.1    0.00 
 238    6:20   0.09   48.4    95    1.8   341     2.9   973.2    0.00 
 238    6:30   0.12   49.8    95    0.9   257     2.2   973.2    0.00 
 238    6:40   0.15   51.7    94    0.5   256     1.0   973.2    0.00 
 238    6:50   0.18   53.2    89    1.8    12     3.1   973.2    0.00 
 238    7:00   0.22   55.1    85    1.9    22     2.9   973.1    0.00 
 238    7:10   0.25   57.6    82    0.7    92     2.5   973.0    0.00 
 238    7:20   0.29   59.4    78    0.9   108     2.3   973.0    0.00 
 238    7:30   0.32   60.9    75    0.8   106     2.6   972.9    0.00 
 238    7:40   0.36   61.2    75    1.0   153     3.1   972.9    0.00 
 238    7:50   0.39   63.0    71    1.8    95     3.4   972.9    0.00 
 238    8:00   0.42   63.8    69    1.7   104     3.5   972.9    0.00 
 238    8:10   0.46   66.9    62    1.0    79     3.0   973.0    0.00 
 238    8:20   0.49   68.3    59    1.1   119     3.5   973.0    0.00 
 238    8:30   0.53   67.9    59    2.3   127     4.9   973.2    0.00 
 238    8:40   0.56   68.4    57    2.2   152     6.1   973.3    0.00 
 238    8:50   0.59   69.8    54    2.9   134     5.7   973.5    0.00 
 238    9:00   0.62   70.1    53    2.7   115     5.3   973.5    0.00 
 238    9:10   0.65   72.2    50    2.5    91     5.5   973.6    0.00 
 238    9:20   0.67   73.2    47    3.1   150     6.6   973.7    0.00 
 238    9:30   0.70   73.6    47    3.1   158     6.4   973.6    0.00 
 238    9:40   0.72   74.1    46    3.7   141     7.1   973.6    0.00 
 238    9:50   0.75   75.8    43    3.2   196     6.6   973.7    0.00 
 238   10:00   0.77   76.1    42    3.5   229     6.9   973.7    0.00 
 238   10:10   0.79   77.0    40    3.9   195     6.9   973.7    0.00 
 238   10:20   0.82   77.8    38    3.4   242     6.1   973.7    0.00 
 238   10:30   0.84   78.0    37    3.4   214     9.5   973.5    0.00 
 238   10:40   0.84   79.4    35    4.4   218    10.8   973.5    0.00 
 238   10:50   0.86   79.9    35    5.3   212     9.6   973.5    0.00 
 238   11:00   0.87   80.3    35    5.8   175    11.0   973.5    0.00 
 238   11:10   0.88   81.2    35    3.4   194     9.0   973.5    0.00 
 238   11:20   0.88   81.7    35    5.1   196    11.0   973.3    0.00 
 238   11:30   0.88   81.9    34    5.4   190     8.9   973.2    0.00 
 238   11:40   0.90   82.0    33    2.7   186     8.3   973.1    0.00 
 238   11:50   0.91   83.8    31    2.2    61     5.2   973.0    0.00 
 238   12:00   0.91   84.3    30    4.0   212     8.0   972.9    0.00 
 238   12:10   0.92   83.7    30    4.2   222    10.9   972.8    0.00 
 238   12:20   0.92   84.3    30    7.7   220    15.9   972.7    0.00 
 238   12:30   0.91   84.2    30    8.6   218    13.7   972.7    0.00 
 238   12:40   0.91   84.1    30    8.9   205    14.4   972.7    0.00 
 238   12:50   0.90   84.0    29    8.4   225    12.9   972.6    0.00 
 238   13:00   0.89   85.4    27    6.2   163    12.2   972.6    0.00 
 238   13:10   0.88   86.7    26    5.0   175    10.8   972.6    0.00 
 238   13:20   0.87   85.9    27    6.1   224    10.7   972.5    0.00 
 238   13:30   0.86   86.0    26    6.0   210    13.1   972.4    0.00 
 238   13:40   0.85   86.0    26    7.7   246    13.0   972.3    0.00 
 238   13:50   0.83   86.0    25    8.0   213    14.5   972.1    0.00 
 238   14:00   0.82   86.7    25    6.4   220    12.4   972.0    0.00 
 238   14:10   0.79   86.7    25    7.5   221    12.6   971.8    0.00 
 238   14:20   0.77   87.1    24    9.5   209    14.7   971.6    0.00 
 238   14:30   0.75   86.4    25    8.2   235    14.0   971.6    0.00 
 238   14:40   0.72   86.4    25    9.8   234    14.8   971.6    0.00 
 238   14:50   0.70   86.5    25    8.5   221    13.5   971.5    0.00 
 238   15:00   0.67   86.3    25   10.7   227    15.6   971.5    0.00 
 238   15:10   0.64   85.6    26   10.7   220    17.5   971.5    0.00 
 238   15:20   0.61   85.6    26    9.8   242    18.5   971.6    0.00 
 238   15:30   0.57   85.9    25    9.2   247    17.0   971.6    0.00 
 238   15:40   0.54   85.1    29    8.4   264    13.2   971.6    0.00 
 238   15:50   0.51   84.1    33    8.9   270    15.5   971.7    0.00 
 238   16:00   0.48   83.3    35    9.4   265    14.0   971.8    0.00 
 238   16:10   0.45   82.1    38   10.0   274    15.8   971.9    0.00 
 238   16:20   0.41   81.8    37    8.4   281    13.6   971.9    0.00 
 238   16:30   0.38   81.6    38    9.0   281    14.4   972.0    0.00 
 238   16:40   0.34   80.4    40    9.9   278    14.8   972.1    0.00 
 238   16:50   0.31   80.5    40    6.9   290    11.3   972.1    0.00 
 238   17:00   0.27   80.0    41    6.9   297    10.7   972.1    0.00 
 238   17:10   0.24   78.9    43    7.6   291    12.7   972.1    0.00 
 238   17:20   0.20   78.3    44    8.3   278    12.3   972.0    0.00 
 238   17:30   0.17   77.2    46    7.3   285    11.8   972.1    0.00 
 238   17:40   0.14   76.9    46    7.0   287    11.2   972.2    0.00 
 238   17:50   0.11   76.1    48    7.6   279    12.3   972.2    0.00 
 238   18:00   0.08   76.0    47    4.8   274     8.0   972.3    0.00 
 238   18:10   0.06   75.0    49    5.6   272     8.5   972.3    0.00 
 238   18:20   0.03   74.4    50    3.7   271     6.1   972.4    0.00 
 238   18:30   0.01   73.2    52    3.1   272     5.2   972.5    0.00 
 238   18:40   0.00   72.1    54    3.5   274     6.0   972.6    0.00 
 238   18:50   0.00   71.3    55    2.0   276     4.5   972.6    0.00 
 238   19:00   0.00   70.5    56    1.5   272     2.3   972.6    0.00 
 238   19:10   0.00   69.6    57    1.6   271     2.3   972.7    0.00 
 238   19:20   0.00   68.8    58    1.7   280     2.6   972.7    0.00 
 238   19:30   0.00   67.2    60    1.3   273     2.7   972.7    0.00 
 238   19:40   0.00   66.2    62    0.7   211     1.6   972.8    0.00 
 238   19:50   0.00   65.6    63    0.3   142     1.3   972.9    0.00 
 238   20:00   0.00   65.1    65    1.0   149     2.4   973.0    0.00 
 238   20:10   0.00   64.3    67    1.1    77     2.5   973.1    0.00 
 238   20:20   0.00   63.8    68    1.7    50     3.8   973.1    0.00 
 238   20:30   0.00   62.3    70    2.5    55     4.3   973.2    0.00 
 238   20:40   0.00   62.9    72    1.6    77     3.7   973.2    0.00 
 238   20:50   0.00   62.9    71    0.6    57     2.9   973.2    0.00 
 238   21:00   0.00   62.0    72    1.4    44     2.8   973.3    0.00 
 238   21:10   0.00   60.6    73    2.8    23     4.1   973.3    0.00 
 238   21:20   0.00   59.2    75    2.5     8     4.0   973.4    0.00 
 238   21:30   0.00   58.7    76    0.2   303     1.2   973.4    0.00 
 238   21:40   0.00   58.7    76    0.5   250     1.2   973.5    0.00 
 238   21:50   0.00   58.0    76    0.6     3     2.5   973.5    0.00 
 238   22:00   0.00   57.4    78    1.3   354     2.4   973.5    0.00 
 238   22:10   0.00   56.8    79    0.3   341     1.6   973.5    0.00 
 238   22:20   0.00   56.9    80    1.0   249     1.8   973.5    0.00 
 238   22:30   0.00   56.6    79    1.1   238     1.9   973.5    0.00 
 238   22:40   0.00   56.0    79    0.3   266     1.5   973.5    0.00 
 238   22:50   0.00   55.7    79    0.1    35     1.3   973.5    0.00 
 238   23:00   0.00   55.4    80    0.3   212     1.2   973.5    0.00 
 238   23:10   0.00   55.0    81    0.1   358     0.7   973.5    0.00 
 238   23:20   0.00   55.1    82    0.3     4     1.5   973.6    0.00 
 238   23:30   0.00   54.2    83    1.4     4     2.3   973.6    0.00 
 238   23:40   0.00   54.1    84    1.1   210     1.9   973.7    0.00 
 238   23:50   0.00   54.8    84    0.2   196     1.2   973.7    0.00 
 239    0:00   0.00   53.9    84    1.3    16     2.6   973.7    0.00 
 239    0:10   0.00   53.9    84    1.5   352     3.7   973.8    0.00 
 239    0:20   0.00   53.5    86    1.8   342     4.5   973.8    0.00 
 239    0:30   0.00   54.2    87    0.9   264     2.0   973.8    0.00 
 239    0:40   0.00   54.3    86    0.5   244     1.6   973.7    0.00 
 239    0:50   0.00   53.8    85    0.0   263     0.6   973.7    0.00 
 239    1:00   0.00   53.3    84    1.3   349     3.4   973.7    0.00 
 239    1:10   0.00   54.0    84    0.1   290     0.6   973.6    0.00 
 239    1:20   0.00   54.0    84    0.2   251     1.3   973.6    0.00 
 239    1:30   0.00   53.2    85    1.0    18     2.0   973.6    0.00 
 239    1:40   0.00   52.7    86    0.4   344     1.5   973.6    0.00 
 239    1:50   0.00   53.2    87    0.9   273     2.3   973.6    0.00 
 239    2:00   0.00   53.3    87    1.5   270     2.9   973.6    0.00 
 239    2:10   0.00   53.0    86    0.9    52     1.8   973.6    0.00 
 239    2:20   0.00   52.8    86    0.0     0     0.0   973.6    0.00 
 239    2:30   0.00   53.0    84    0.8   358     1.7   973.6    0.00 
 239    2:40   0.00   52.7    85    1.6   330     3.0   973.7    0.00 
 239    2:50   0.00   53.1    87    1.3   270     1.8   973.7    0.00 
 239    3:00   0.00   53.7    87    0.7   326     2.3   973.6    0.00 
 239    3:10   0.00   53.6    86    1.0   261     1.8   973.6    0.00 
 239    3:20   0.00   53.5    82    0.5   268     1.8   973.7    0.00 
 239    3:30   0.00   53.3    80    0.1   351     1.3   973.7    0.00 
 239    3:40   0.00   53.0    81    0.4   229     1.5   973.7    0.00 
 239    3:50   0.00   53.3    80    0.5    10     2.6   973.8    0.00 
 239    4:00   0.00   52.6    79    1.4   359     3.3   973.8    0.00 
 239    4:10   0.00   53.3    76    2.4   347     4.2   973.8    0.00 
 239    4:20   0.00   53.6    76    0.7   262     1.5   973.9    0.00 
 239    4:30   0.00   53.7    77    1.0   271     1.6   973.9    0.00 
 239    4:40   0.00   53.6    76    0.0   256     0.6   974.0    0.00 

Return to Sedgwick Reserve graphs page.


Western Regional Climate Center,wrcc@dri.edu